Time;durP1;ratioP1;P1;durP2;ratioP2;P2;SDS_P1;SDS_P2;PMS_P1;PMS_P2;Temp;Humidity;BMP_temperature;BMP_pressure;BME280_temperature;BME280_humidity;BME280_pressure;Samples;Min_cycle;Max_cycle;Signal;HPM_P1;HPM_P2
2022/03/17 00:01:36;;;;;;;37.67;30.50;;;;;;;4.52;100.00;95155.84;5035642;28;20222;-65
2022/03/17 00:04:22;;;;;;;39.87;30.90;;;;;;;4.56;100.00;95160.03;5016993;28;20226;-65
2022/03/17 00:07:08;;;;;;;38.07;30.23;;;;;;;4.50;100.00;95155.47;5038861;28;20190;-65
2022/03/17 00:09:54;;;;;;;39.63;31.03;;;;;;;4.47;100.00;95161.72;5049465;28;20680;-65
2022/03/17 00:12:42;;;;;;;39.43;30.20;;;;;;;4.45;100.00;95164.06;5044082;28;20657;-65
2022/03/17 00:15:28;;;;;;;41.60;31.07;;;;;;;4.38;100.00;95150.66;5036135;28;20222;-65
2022/03/17 00:18:14;;;;;;;37.17;30.77;;;;;;;4.35;100.00;95149.56;5050266;28;20280;-65
2022/03/17 00:21:00;;;;;;;39.60;31.13;;;;;;;4.34;100.00;95145.34;5031886;28;20233;-65
2022/03/17 00:23:46;;;;;;;37.93;30.53;;;;;;;4.31;100.00;95137.28;5047439;28;20210;-66
2022/03/17 00:26:32;;;;;;;40.20;31.90;;;;;;;4.23;100.00;95146.66;5051072;28;20189;-65
2022/03/17 00:29:19;;;;;;;40.33;32.07;;;;;;;4.22;100.00;95162.13;5036727;28;20272;-65
2022/03/17 00:32:06;;;;;;;40.47;31.50;;;;;;;4.31;100.00;95150.78;5025655;28;20191;-65
2022/03/17 00:37:56;;;;;;;40.17;31.53;;;;;;;4.15;100.00;95148.72;5039325;28;20293;-66
2022/03/17 00:40:44;;;;;;;40.53;31.07;;;;;;;4.14;100.00;95154.53;5032281;28;20187;-65
2022/03/17 00:43:30;;;;;;;41.60;32.47;;;;;;;4.17;100.00;95146.38;5045616;28;20273;-65
2022/03/17 00:46:16;;;;;;;39.47;30.80;;;;;;;4.16;100.00;95138.66;5037823;28;20191;-66
2022/03/17 00:49:03;;;;;;;39.33;31.17;;;;;;;4.11;100.00;95139.13;5035629;28;20226;-65
2022/03/17 00:51:50;;;;;;;39.90;30.07;;;;;;;4.08;100.00;95135.31;5032198;28;23386;-65
2022/03/17 00:54:40;;;;;;;37.20;29.60;;;;;;;4.15;100.00;95145.25;5032471;28;20977;-65
2022/03/17 00:57:26;;;;;;;38.37;30.37;;;;;;;4.10;100.00;95149.19;5033679;28;20681;-66
2022/03/17 01:00:14;;;;;;;39.97;30.57;;;;;;;4.19;100.00;95140.56;5049395;28;20321;-65
2022/03/17 01:03:01;;;;;;;36.87;29.70;;;;;;;4.13;100.00;95137.53;5035006;28;20260;-66
2022/03/17 01:05:46;;;;;;;41.73;30.13;;;;;;;4.02;100.00;95134.22;5050141;28;20191;-66
2022/03/17 01:08:32;;;;;;;38.73;30.33;;;;;;;4.05;100.00;95136.13;5047042;28;20705;-65
2022/03/17 01:11:18;;;;;;;37.67;30.80;;;;;;;4.08;100.00;95124.50;5046488;28;20190;-65
2022/03/17 01:14:04;;;;;;;38.60;28.67;;;;;;;4.11;100.00;95133.72;5038503;28;20225;-65
2022/03/17 01:16:51;;;;;;;37.23;30.00;;;;;;;4.16;100.00;95122.44;5053454;28;20280;-65
2022/03/17 01:19:37;;;;;;;37.77;29.80;;;;;;;4.10;100.00;95121.38;5047170;28;20234;-65
2022/03/17 01:22:23;;;;;;;35.47;28.30;;;;;;;4.15;100.00;95120.91;5044549;28;20223;-66
2022/03/17 01:25:09;;;;;;;35.63;28.57;;;;;;;4.12;100.00;95127.91;5048489;28;20205;-64
2022/03/17 01:27:54;;;;;;;38.73;30.70;;;;;;;4.16;100.00;95122.44;5042792;28;20717;-65
2022/03/17 01:30:40;;;;;;;39.20;28.87;;;;;;;4.08;100.00;95121.78;5041841;28;20579;-65
2022/03/17 01:33:26;;;;;;;35.40;26.90;;;;;;;4.05;100.00;95114.50;5039216;28;20299;-65
2022/03/17 01:36:12;;;;;;;37.00;30.17;;;;;;;4.10;100.00;95124.88;5029980;28;20241;-65
2022/03/17 01:38:58;;;;;;;35.53;28.53;;;;;;;4.10;100.00;95124.88;5043593;28;20214;-66
2022/03/17 01:41:44;;;;;;;37.93;28.77;;;;;;;4.16;100.00;95122.44;5047385;28;20210;-65
2022/03/17 01:44:30;;;;;;;37.90;28.57;;;;;;;4.07;100.00;95122.97;5049620;28;20193;-66
2022/03/17 01:47:28;;;;;;;34.03;28.13;;;;;;;4.08;100.00;95121.03;5049558;28;20685;-65
2022/03/17 01:50:17;;;;;;;32.70;26.60;;;;;;;4.01;100.00;95105.69;5045064;28;20210;-65
2022/03/17 01:53:03;;;;;;;37.53;27.93;;;;;;;4.04;100.00;95104.88;5030584;28;20639;-65
2022/03/17 01:55:49;;;;;;;35.87;27.33;;;;;;;4.13;100.00;95107.81;5050117;28;20879;-65
2022/03/17 01:58:35;;;;;;;33.80;27.07;;;;;;;4.09;100.00;95109.81;5040518;28;20193;-66
2022/03/17 02:01:21;;;;;;;34.33;27.03;;;;;;;4.17;100.00;95127.47;5031933;28;20189;-65
2022/03/17 02:04:07;;;;;;;33.47;26.47;;;;;;;4.19;100.00;95108.13;5050020;28;20281;-65
2022/03/17 02:06:53;;;;;;;33.23;27.40;;;;;;;4.17;100.00;95105.06;5049186;28;20201;-65
2022/03/17 02:09:41;;;;;;;33.90;27.87;;;;;;;4.13;100.00;95104.34;5039395;28;20351;-65
2022/03/17 02:15:32;;;;;;;33.63;26.77;;;;;;;4.12;100.00;95119.81;5034790;28;20256;-65
2022/03/17 02:18:18;;;;;;;30.20;24.83;;;;;;;4.08;100.00;95113.69;5053759;28;20299;-65
2022/03/17 02:21:04;;;;;;;31.33;25.03;;;;;;;4.10;100.00;95102.47;5042632;28;20289;-65
2022/03/17 02:26:55;;;;;;;34.70;26.23;;;;;;;4.09;100.00;95087.44;5049238;28;20213;-65
2022/03/17 02:29:41;;;;;;;31.67;25.47;;;;;;;3.99;100.00;95083.72;5041849;28;20219;-65
2022/03/17 02:32:26;;;;;;;36.80;24.23;;;;;;;3.96;100.00;95089.16;5045232;28;20190;-65
2022/03/17 02:35:15;;;;;;;32.10;24.53;;;;;;;3.97;100.00;95086.06;5047347;28;20256;-65
2022/03/17 02:38:03;;;;;;;31.03;24.83;;;;;;;4.01;100.00;95094.88;5035672;28;20244;-65
2022/03/17 02:40:52;;;;;;;32.20;25.67;;;;;;;4.03;100.00;95100.66;5041669;28;20332;-65
2022/03/17 02:43:38;;;;;;;38.03;25.27;;;;;;;4.02;100.00;95096.41;5039758;28;20277;-65
2022/03/17 02:46:25;;;;;;;35.23;26.03;;;;;;;4.04;100.00;95104.13;5046270;28;20210;-65
2022/03/17 02:49:15;;;;;;;37.77;26.20;;;;;;;4.02;100.00;95101.06;5044286;28;20214;-65
2022/03/17 02:52:01;;;;;;;30.47;24.60;;;;;;;4.02;100.00;95099.09;5041388;28;20289;-65
2022/03/17 02:54:47;;;;;;;33.80;25.53;;;;;;;4.19;100.00;95111.56;5033418;28;20230;-65
2022/03/17 02:57:33;;;;;;;32.43;25.50;;;;;;;4.23;100.00;95104.19;5030942;28;20187;-66
2022/03/17 03:00:18;;;;;;;32.03;24.63;;;;;;;4.13;100.00;95097.00;5034463;28;20218;-65
2022/03/17 03:03:07;;;;;;;32.10;25.30;;;;;;;4.05;100.00;95101.00;5028842;28;20218;-65
2022/03/17 03:05:53;;;;;;;31.13;24.63;;;;;;;3.99;100.00;95104.59;5027890;28;20198;-65
2022/03/17 03:08:39;;;;;;;35.23;24.90;;;;;;;4.12;100.00;95121.75;5046133;28;20211;-65
2022/03/17 03:11:25;;;;;;;32.03;24.80;;;;;;;4.13;100.00;95112.44;5048339;28;20661;-65
2022/03/17 03:14:11;;;;;;;33.10;24.60;;;;;;;4.06;100.00;95118.72;5047511;28;20225;-65
2022/03/17 03:16:57;;;;;;;32.00;24.70;;;;;;;4.05;100.00;95114.50;5033672;28;20702;-65
2022/03/17 03:19:43;;;;;;;31.03;24.10;;;;;;;4.04;100.00;95120.34;5033235;28;20575;-66
2022/03/17 03:22:33;;;;;;;31.90;25.30;;;;;;;4.06;100.00;95109.84;5044549;28;20205;-65
2022/03/17 03:25:19;;;;;;;35.60;24.63;;;;;;;4.11;100.00;95115.56;5029297;28;20190;-65
2022/03/17 03:28:09;;;;;;;30.70;24.83;;;;;;;4.04;100.00;95112.97;5013944;28;20268;-65
2022/03/17 03:30:55;;;;;;;29.77;22.80;;;;;;;4.02;100.00;95119.97;5027475;28;20191;-65
2022/03/17 03:33:41;;;;;;;36.00;24.13;;;;;;;4.02;100.00;95119.97;5046954;28;20673;-65
2022/03/17 03:39:33;;;;;;;31.70;24.23;;;;;;;4.10;100.00;95129.50;5045937;28;20274;-65
2022/03/17 03:42:19;;;;;;;34.03;25.23;;;;;;;4.05;100.00;95119.91;5047231;28;20265;-66
2022/03/17 03:45:05;;;;;;;30.93;24.67;;;;;;;4.06;100.00;95134.19;5047966;28;20269;-65
2022/03/17 03:47:51;;;;;;;32.60;25.47;;;;;;;4.14;100.00;95154.53;5036514;28;20194;-65
2022/03/17 03:50:37;;;;;;;33.47;24.83;;;;;;;4.15;100.00;95123.63;5028374;28;20688;-66
2022/03/17 03:54:12;;;;;;;32.10;24.20;;;;;;;4.08;100.00;95129.13;5047449;28;20281;-65
2022/03/17 03:56:30;;;;;;;30.47;23.30;;;;;;;4.06;100.00;95128.78;5047615;28;20602;-65
2022/03/17 03:59:21;;;;;;;34.03;23.93;;;;;;;3.98;100.00;95117.31;5037425;28;20700;-65
2022/03/17 04:02:10;;;;;;;37.53;23.93;;;;;;;4.04;100.00;95128.44;5028146;28;20285;-65
2022/03/17 04:04:56;;;;;;;36.17;23.63;;;;;;;4.08;100.00;95121.03;5028891;28;20661;-65
2022/03/17 04:07:42;;;;;;;30.40;23.70;;;;;;;4.09;100.00;95125.28;5023996;28;20629;-65
2022/03/17 04:10:28;;;;;;;41.83;25.20;;;;;;;4.12;100.00;95116.34;5047439;28;20241;-65
2022/03/17 04:13:14;;;;;;;33.47;24.43;;;;;;;4.08;100.00;95119.09;5045840;28;20663;-65
2022/03/17 04:15:59;;;;;;;36.17;25.80;;;;;;;4.15;100.00;95131.72;5048087;28;20214;-65
2022/03/17 04:18:45;;;;;;;34.60;25.00;;;;;;;4.09;100.00;95117.91;5041178;28;20210;-65
2022/03/17 04:21:32;;;;;;;33.37;23.87;;;;;;;4.00;100.00;95114.22;5033151;28;20245;-65
2022/03/17 04:24:18;;;;;;;32.70;23.77;;;;;;;3.97;100.00;95123.88;5034436;28;20262;-65
2022/03/17 04:27:05;;;;;;;34.07;24.13;;;;;;;4.04;100.00;95126.47;5015323;28;20198;-65
2022/03/17 04:29:51;;;;;;;33.47;24.77;;;;;;;4.21;100.00;95122.75;5047170;28;20308;-66
2022/03/17 04:32:37;;;;;;;32.93;24.93;;;;;;;4.15;100.00;95129.81;5048231;28;20558;-65
2022/03/17 04:35:23;;;;;;;31.17;23.07;;;;;;;4.08;100.00;95131.84;5034845;28;20234;-65
2022/03/17 04:38:09;;;;;;;34.43;25.30;;;;;;;4.12;100.00;95136.03;5046047;28;20206;-66
2022/03/17 04:40:55;;;;;;;33.07;23.23;;;;;;;4.05;100.00;95133.44;5030944;28;20282;-66
2022/03/17 04:43:41;;;;;;;37.57;26.03;;;;;;;3.98;100.00;95141.63;5040850;28;20199;-65
2022/03/17 04:46:27;;;;;;;34.83;24.93;;;;;;;4.05;100.00;95136.13;5045286;28;20241;-65
2022/03/17 04:49:13;;;;;;;34.07;24.80;;;;;;;4.01;100.00;95142.75;5042271;28;20804;-66
2022/03/17 04:51:59;;;;;;;36.17;23.67;;;;;;;3.95;100.00;95153.28;5050231;28;20248;-65
2022/03/17 04:54:45;;;;;;;34.33;23.97;;;;;;;3.97;100.00;95152.88;5050553;28;20693;-65
2022/03/17 04:57:31;;;;;;;34.10;24.83;;;;;;;4.02;100.00;95149.69;5050140;28;20202;-65
2022/03/17 05:00:17;;;;;;;37.50;24.83;;;;;;;4.06;100.00;95159.28;5044726;28;20697;-65
2022/03/17 05:03:02;;;;;;;33.40;24.93;;;;;;;4.19;100.00;95164.88;5044655;28;20197;-66
2022/03/17 05:05:49;;;;;;;37.77;26.97;;;;;;;4.33;100.00;95170.06;5032067;28;20227;-66
2022/03/17 05:08:35;;;;;;;35.10;25.23;;;;;;;4.18;100.00;95161.41;5043466;28;20202;-65
2022/03/17 05:11:22;;;;;;;32.37;23.83;;;;;;;4.17;100.00;95168.00;5051273;28;20194;-65
2022/03/17 05:14:07;;;;;;;33.80;24.73;;;;;;;4.19;100.00;95173.75;5031483;28;20202;-66
2022/03/17 05:16:53;;;;;;;33.30;25.37;;;;;;;4.16;100.00;95182.66;5042953;28;20272;-65
2022/03/17 05:19:39;;;;;;;39.30;25.83;;;;;;;3.98;100.00;95174.06;5047043;28;20218;-66
2022/03/17 05:22:26;;;;;;;34.50;24.40;;;;;;;4.04;100.00;95179.78;5048761;28;20256;-65
2022/03/17 05:25:12;;;;;;;37.87;25.77;;;;;;;4.01;100.00;95196.78;5048262;28;20300;-65
2022/03/17 05:27:59;;;;;;;33.30;24.87;;;;;;;3.99;100.00;95197.19;5048109;28;20724;-66
2022/03/17 05:30:46;;;;;;;35.03;23.37;;;;;;;3.92;100.00;95208.09;5036752;28;20194;-65
2022/03/17 05:33:31;;;;;;;36.20;24.73;;;;;;;3.92;100.00;95201.97;5049629;28;20194;-65
2022/03/17 05:36:19;;;;;;;34.70;24.83;;;;;;;3.95;100.00;95204.59;5051733;28;20672;-65
2022/03/17 05:39:06;;;;;;;39.50;24.60;;;;;;;3.95;100.00;95201.13;5040524;28;20229;-65
2022/03/17 05:41:52;;;;;;;37.30;25.37;;;;;;;3.93;100.00;95195.38;5031973;28;20298;-65
2022/03/17 05:44:38;;;;;;;37.30;24.57;;;;;;;3.95;100.00;95206.53;5048394;28;20187;-66
2022/03/17 05:47:24;;;;;;;39.00;25.67;;;;;;;3.93;100.00;95203.47;5049137;28;20202;-65
2022/03/17 05:50:13;;;;;;;39.27;27.10;;;;;;;3.91;100.00;95217.38;5032483;28;20223;-65
2022/03/17 05:52:58;;;;;;;37.37;25.83;;;;;;;4.00;100.00;95214.97;5049556;28;20273;-65
2022/03/17 05:55:44;;;;;;;41.13;26.93;;;;;;;3.93;100.00;95217.75;5046392;28;20230;-66
2022/03/17 05:58:30;;;;;;;36.27;26.00;;;;;;;3.94;100.00;95224.69;5049549;28;20269;-65
2022/03/17 06:01:16;;;;;;;37.00;25.83;;;;;;;3.96;100.00;95227.75;5048055;28;20217;-66
2022/03/17 06:04:02;;;;;;;43.23;26.87;;;;;;;3.96;100.00;95235.84;5042827;28;20688;-65
2022/03/17 06:06:48;;;;;;;39.77;25.67;;;;;;;4.06;100.00;95228.75;5049928;28;20675;-65
2022/03/17 06:09:34;;;;;;;39.63;26.30;;;;;;;4.07;100.00;95230.31;5042365;28;20214;-65
2022/03/17 06:12:20;;;;;;;35.63;26.03;;;;;;;4.14;100.00;95241.03;5046996;28;20191;-65
2022/03/17 06:15:07;;;;;;;40.33;26.20;;;;;;;4.19;100.00;95232.47;5036772;28;20784;-65
2022/03/17 06:17:55;;;;;;;34.63;25.50;;;;;;;4.21;100.00;95249.78;5048172;28;20740;-65
2022/03/17 06:20:41;;;;;;;39.97;25.80;;;;;;;4.17;100.00;95245.59;5044616;28;20222;-66
2022/03/17 06:23:27;;;;;;;33.50;24.43;;;;;;;4.01;100.00;95246.19;5048994;28;20273;-65
2022/03/17 06:26:13;;;;;;;34.13;24.87;;;;;;;4.39;100.00;95261.13;5046492;28;20195;-65
2022/03/17 06:28:59;;;;;;;37.07;26.40;;;;;;;4.30;100.00;95254.69;5042286;28;20692;-66
2022/03/17 06:31:45;;;;;;;36.67;26.27;;;;;;;4.19;100.00;95267.59;5044674;28;20194;-66
2022/03/17 06:34:31;;;;;;;34.50;24.53;;;;;;;4.18;100.00;95250.59;5046639;28;20973;-65
2022/03/17 06:37:17;;;;;;;37.43;24.70;;;;;;;4.25;100.00;95268.66;5040332;28;20207;-66
2022/03/17 06:40:05;;;;;;;34.37;25.77;;;;;;;4.32;100.00;95268.56;5038413;28;20293;-65
2022/03/17 06:42:52;;;;;;;35.77;25.17;;;;;;;4.32;100.00;95263.94;5038270;28;20232;-65
2022/03/17 06:45:38;;;;;;;40.60;26.60;;;;;;;4.33;100.00;95265.44;5047377;28;20183;-66
2022/03/17 06:48:23;;;;;;;34.23;24.97;;;;;;;4.47;100.00;95269.88;5041713;28;20562;-65
2022/03/17 06:51:09;;;;;;;37.50;26.43;;;;;;;4.43;100.00;95269.94;5042422;28;20202;-65
2022/03/17 06:53:55;;;;;;;36.27;25.10;;;;;;;4.47;100.00;95270.66;5046001;28;20197;-65
2022/03/17 06:56:41;;;;;;;32.93;25.17;;;;;;;4.39;100.00;95276.59;5047710;28;20226;-65
2022/03/17 06:59:27;;;;;;;36.13;24.73;;;;;;;4.37;100.00;95281.63;5046660;28;20217;-65
2022/03/17 07:02:13;;;;;;;32.80;24.57;;;;;;;4.41;100.00;95287.75;5043631;28;20245;-65
2022/03/17 07:04:59;;;;;;;32.53;24.23;;;;;;;4.29;100.00;95269.38;5037252;28;20209;-65
2022/03/17 07:07:45;;;;;;;34.07;25.70;;;;;;;4.32;100.00;95279.38;5043616;28;20344;-65
2022/03/17 07:10:31;;;;;;;36.57;24.33;;;;;;;4.43;100.00;95285.41;5041465;28;20724;-65
2022/03/17 07:13:17;;;;;;;34.37;25.50;;;;;;;4.63;100.00;95281.63;5038984;28;20282;-65
2022/03/17 07:16:03;;;;;;;36.60;25.37;;;;;;;4.54;100.00;95294.91;5039770;28;20256;-65
2022/03/17 07:18:49;;;;;;;38.93;26.33;;;;;;;4.65;100.00;95292.78;5032697;28;20299;-65
2022/03/17 07:21:35;;;;;;;35.17;25.10;;;;;;;4.72;100.00;95294.63;5041514;28;20281;-65
2022/03/17 07:24:21;;;;;;;33.57;24.53;;;;;;;4.82;100.00;95301.81;5032955;28;20206;-65
2022/03/17 07:27:07;;;;;;;36.57;26.03;;;;;;;4.93;100.00;95297.78;5040536;28;20221;-66
2022/03/17 07:29:53;;;;;;;35.20;24.33;;;;;;;5.04;100.00;95292.19;5044789;28;20297;-65
2022/03/17 07:32:39;;;;;;;35.30;26.23;;;;;;;5.04;100.00;95304.97;5033742;28;20190;-65
2022/03/17 07:35:29;;;;;;;40.47;27.20;;;;;;;5.10;100.00;95306.03;5039076;28;20217;-65
2022/03/17 07:38:15;;;;;;;34.07;25.13;;;;;;;5.19;100.00;95306.25;5027962;28;20600;-65
2022/03/17 07:41:01;;;;;;;34.63;25.80;;;;;;;5.24;100.00;95314.69;5043942;28;20198;-65
2022/03/17 07:43:46;;;;;;;35.90;25.07;;;;;;;5.16;100.00;95320.63;5042057;28;20202;-65
2022/03/17 07:46:51;;;;;;;36.50;24.47;;;;;;;4.97;100.00;95326.72;5022871;28;20202;-65
2022/03/17 07:49:42;;;;;;;33.37;23.93;;;;;;;4.90;100.00;95319.50;5033756;28;20214;-65
2022/03/17 07:52:28;;;;;;;33.47;24.53;;;;;;;4.95;100.00;95324.44;5040000;28;20561;-65
2022/03/17 07:55:17;;;;;;;32.17;24.17;;;;;;;5.02;100.00;95327.03;5043671;28;20240;-65
2022/03/17 07:58:03;;;;;;;34.67;23.10;;;;;;;4.91;100.00;95319.06;5039790;28;20230;-65
2022/03/17 08:00:52;;;;;;;32.10;23.67;;;;;;;4.99;100.00;95332.50;5047463;28;20245;-65
2022/03/17 08:03:40;;;;;;;34.13;24.30;;;;;;;5.09;100.00;95328.88;5046064;28;20190;-65
2022/03/17 08:06:26;;;;;;;39.87;24.63;;;;;;;5.15;100.00;95340.75;5043918;28;20209;-65
2022/03/17 08:09:12;;;;;;;34.10;25.50;;;;;;;5.19;100.00;95342.22;5044371;28;20214;-65
2022/03/17 08:11:59;;;;;;;36.93;23.43;;;;;;;5.33;100.00;95341.97;5042827;28;20274;-65
2022/03/17 08:14:45;;;;;;;34.73;23.97;;;;;;;5.46;100.00;95342.94;5049028;28;20305;-65
2022/03/17 08:17:31;;;;;;;32.30;24.17;;;;;;;5.51;100.00;95334.34;5055950;28;20215;-65
2022/03/17 08:20:18;;;;;;;30.67;22.80;;;;;;;5.53;100.00;95344.75;5045442;28;20321;-65
2022/03/17 08:23:05;;;;;;;29.83;20.33;;;;;;;5.61;100.00;95346.16;5037216;28;20190;-65
2022/03/17 08:25:50;;;;;;;28.70;21.07;;;;;;;5.55;100.00;95354.00;5032024;28;20191;-65
2022/03/17 08:28:36;;;;;;;29.53;20.80;;;;;;;5.57;100.00;95356.28;5044724;28;20376;-65
2022/03/17 08:31:22;;;;;;;31.10;21.40;;;;;;;5.62;100.00;95358.50;5050744;28;20195;-65
2022/03/17 08:34:08;;;;;;;27.70;20.57;;;;;;;5.34;100.00;95356.28;5042996;28;20205;-65
2022/03/17 08:36:55;;;;;;;32.90;21.50;;;;;;;5.44;100.00;95366.97;5050266;28;20281;-65
2022/03/17 08:39:41;;;;;;;26.53;20.83;;;;;;;5.58;100.00;95365.94;5047335;28;20314;-65
2022/03/17 08:42:27;;;;;;;30.20;21.50;;;;;;;5.65;100.00;95372.00;5042731;28;20364;-65
2022/03/17 08:51:21;;;;;;;35.77;21.63;;;;;;;5.71;100.00;95370.34;5045294;28;20572;-65
2022/03/17 08:54:07;;;;;;;28.87;19.60;;;;;;;5.56;100.00;95368.31;5049574;28;20236;-65
2022/03/17 08:57:00;;;;;;;30.90;21.83;;;;;;;5.75;100.00;95378.44;5038725;28;20576;-65
2022/03/17 08:59:46;;;;;;;29.77;21.17;;;;;;;5.84;100.00;95381.38;5033918;28;20697;-65
2022/03/17 09:02:33;;;;;;;27.10;19.53;;;;;;;5.98;100.00;95378.41;5031747;28;20650;-65
2022/03/17 09:05:19;;;;;;;29.20;20.47;;;;;;;6.11;100.00;95382.03;5046538;28;20190;-66
2022/03/17 09:08:06;;;;;;;28.80;20.80;;;;;;;6.22;100.00;95379.13;5045645;28;20281;-66
2022/03/17 09:10:52;;;;;;;33.13;20.70;;;;;;;6.28;100.00;95386.34;5048352;28;20222;-65
2022/03/17 09:13:39;;;;;;;28.63;22.10;;;;;;;6.36;100.00;95395.13;5050371;28;20285;-65
2022/03/17 09:16:25;;;;;;;28.20;21.03;;;;;;;6.43;100.00;95401.16;5049051;28;20234;-65
2022/03/17 09:19:11;;;;;;;29.03;21.93;;;;;;;6.50;100.00;95398.31;5033061;28;20272;-66
2022/03/17 09:21:57;;;;;;;26.33;20.20;;;;;;;6.52;100.00;95384.31;5027397;28;20213;-65
2022/03/17 09:24:45;;;;;;;30.97;21.73;;;;;;;6.53;100.00;95391.28;5045669;28;20199;-65
2022/03/17 09:27:31;;;;;;;27.27;19.90;;;;;;;6.54;100.00;95396.31;5035953;28;20206;-65
2022/03/17 09:30:17;;;;;;;26.70;20.23;;;;;;;6.45;100.00;95404.22;5046401;28;20276;-65
2022/03/17 09:33:05;;;;;;;27.33;20.17;;;;;;;6.33;100.00;95401.41;5049085;28;20216;-65
2022/03/17 09:35:56;;;;;;;27.33;19.63;;;;;;;6.50;100.00;95403.00;5046355;28;20301;-65
2022/03/17 09:38:42;;;;;;;25.60;19.83;;;;;;;6.67;100.00;95412.72;5042121;28;20301;-65
2022/03/17 09:41:33;;;;;;;26.03;19.67;;;;;;;7.15;100.00;95401.97;5043401;28;20562;-65
2022/03/17 09:44:18;;;;;;;28.70;19.40;;;;;;;7.35;100.00;95400.72;5041315;28;20222;-65
2022/03/17 09:47:09;;;;;;;30.87;20.50;;;;;;;7.33;100.00;95411.22;5040252;28;21240;-65
2022/03/17 09:49:56;;;;;;;29.37;19.77;;;;;;;7.48;100.00;95408.19;5032585;28;20230;-66
2022/03/17 09:52:44;;;;;;;25.90;19.27;;;;;;;7.07;100.00;95406.81;4994181;28;21953;-65
2022/03/17 09:55:30;;;;;;;25.00;20.27;;;;;;;7.22;100.00;95413.44;5041296;28;20222;-65
2022/03/17 09:58:17;;;;;;;27.17;19.80;;;;;;;7.10;100.00;95410.59;5040659;28;20661;-66
2022/03/17 10:01:03;;;;;;;29.40;20.53;;;;;;;7.16;100.00;95423.25;5022754;28;20920;-65
2022/03/17 10:03:50;;;;;;;26.03;19.40;;;;;;;7.03;100.00;95427.84;5040296;28;20524;-66
2022/03/17 10:06:36;;;;;;;28.13;20.13;;;;;;;7.23;100.00;95425.06;5043273;28;20259;-65
2022/03/17 10:09:22;;;;;;;27.63;20.13;;;;;;;7.36;100.00;95423.22;5040260;28;20252;-65
2022/03/17 10:12:10;;;;;;;26.30;20.57;;;;;;;7.40;100.00;95417.69;5042507;28;20194;-65
2022/03/17 10:14:56;;;;;;;31.10;20.40;;;;;;;7.22;100.00;95423.53;5043875;28;20273;-65
2022/03/17 10:17:42;;;;;;;29.07;19.87;;;;;;;7.18;100.00;95423.59;5041087;28;20602;-65
2022/03/17 10:20:29;;;;;;;28.87;20.33;;;;;;;7.34;100.00;95417.44;5038643;28;20880;-66
2022/03/17 10:23:23;;;;;;;27.47;20.37;;;;;;;7.45;100.00;95425.34;5025599;28;20198;-65
2022/03/17 10:26:10;;;;;;;27.50;20.17;;;;;;;7.53;100.00;95426.69;5028910;28;20301;-65
2022/03/17 10:29:16;;;;;;;34.23;19.23;;;;;;;7.78;100.00;95424.16;5027691;28;20967;-65
2022/03/17 10:32:06;;;;;;;26.13;20.03;;;;;;;7.78;100.00;95435.78;5042036;28;20318;-66
2022/03/17 10:34:55;;;;;;;26.67;19.60;;;;;;;7.59;100.00;95420.31;5043015;28;20222;-65
2022/03/17 10:37:42;;;;;;;24.63;18.97;;;;;;;7.74;100.00;95420.78;5042011;28;20198;-65
2022/03/17 10:40:31;;;;;;;24.53;19.10;;;;;;;7.85;100.00;95408.44;5040852;28;20349;-66
2022/03/17 10:43:20;;;;;;;23.87;18.27;;;;;;;7.56;100.00;95426.63;5024796;28;20236;-66
2022/03/17 10:46:20;;;;;;;27.00;20.50;;;;;;;7.67;100.00;95431.81;5043232;28;20309;-65
2022/03/17 10:49:07;;;;;;;23.67;18.47;;;;;;;7.53;100.00;95423.97;5039609;28;20213;-65
2022/03/17 10:51:55;;;;;;;27.07;19.13;;;;;;;7.59;100.00;95433.16;5042139;28;20202;-65
2022/03/17 10:54:41;;;;;;;22.27;17.80;;;;;;;8.19;100.00;95430.47;5041251;28;20218;-65
2022/03/17 10:57:28;;;;;;;30.10;18.30;;;;;;;8.55;100.00;95430.31;5027015;28;20684;-66
2022/03/17 11:00:24;;;;;;;23.07;18.17;;;;;;;8.87;100.00;95435.63;5040390;28;20323;-65
2022/03/17 11:03:10;;;;;;;28.93;19.80;;;;;;;9.06;100.00;95448.28;5037974;28;20498;-65
2022/03/17 11:05:57;;;;;;;22.13;18.17;;;;;;;9.03;100.00;95434.75;5021451;28;20599;-65
2022/03/17 11:08:45;;;;;;;24.83;17.83;;;;;;;9.26;100.00;95445.38;5037407;28;20190;-65
2022/03/17 11:11:31;;;;;;;26.43;19.17;;;;;;;9.31;100.00;95442.09;5026150;28;20280;-65
2022/03/17 11:14:18;;;;;;;24.30;18.13;;;;;;;9.30;100.00;95440.56;5041684;28;20591;-65
2022/03/17 11:17:06;;;;;;;24.13;18.03;;;;;;;8.96;100.00;95445.91;5041168;28;20259;-66
2022/03/17 11:19:54;;;;;;;24.30;18.57;;;;;;;8.62;100.00;95443.72;5037676;28;20727;-66
2022/03/17 11:22:40;;;;;;;24.70;18.33;;;;;;;8.52;100.00;95442.81;5042232;28;20257;-66
2022/03/17 11:25:34;;;;;;;25.53;18.93;;;;;;;8.40;100.00;95445.47;5041139;28;20213;-66
2022/03/17 11:28:34;;;;;;;27.63;19.27;;;;;;;8.46;100.00;95451.94;5024613;28;20202;-65
2022/03/17 11:31:20;;;;;;;24.00;18.40;;;;;;;8.40;100.00;95448.97;5041782;28;20208;-65
2022/03/17 11:34:06;;;;;;;23.27;18.17;;;;;;;8.15;100.00;95445.34;5041624;28;20190;-66
2022/03/17 11:37:17;;;;;;;23.67;18.67;;;;;;;8.25;100.00;95447.06;5013355;28;20573;-66
2022/03/17 11:40:11;;;;;;;25.20;19.70;;;;;;;8.21;100.00;95447.13;5040607;28;20646;-66
2022/03/17 11:43:07;;;;;;;27.00;19.23;;;;;;;8.09;100.00;95445.13;5026679;28;20214;-65
2022/03/17 11:46:09;;;;;;;25.47;18.30;;;;;;;7.93;100.00;95447.06;5038917;28;20197;-65
2022/03/17 11:48:55;;;;;;;23.87;17.93;;;;;;;7.96;100.00;95441.53;5027501;28;20217;-65
2022/03/17 11:51:55;;;;;;;30.10;19.80;;;;;;;7.86;100.00;95439.84;5042873;28;20232;-65
2022/03/17 11:54:41;;;;;;;24.60;18.30;;;;;;;7.92;100.00;95437.41;5046461;28;20198;-65
2022/03/17 11:57:27;;;;;;;24.60;18.70;;;;;;;8.07;100.00;95435.84;5039284;28;20197;-65
2022/03/17 12:00:18;;;;;;;26.13;17.43;;;;;;;8.67;100.00;95437.00;5037332;28;20233;-65
2022/03/17 12:03:06;;;;;;;24.30;17.37;;;;;;;8.65;100.00;95434.69;5025308;28;20203;-65
2022/03/17 12:06:16;;;;;;;26.97;19.30;;;;;;;8.75;100.00;95443.75;5039676;28;20189;-64
2022/03/17 12:09:07;;;;;;;26.13;18.90;;;;;;;8.15;100.00;95434.47;5033236;28;20244;-65
2022/03/17 12:11:55;;;;;;;28.10;19.03;;;;;;;8.19;100.00;95446.03;5042265;28;20229;-65
2022/03/17 12:14:49;;;;;;;29.30;18.77;;;;;;;8.27;100.00;95441.94;5043095;28;20198;-65
2022/03/17 12:17:34;;;;;;;24.90;19.50;;;;;;;8.41;100.00;95442.34;5040542;28;20206;-65
2022/03/17 12:20:24;;;;;;;28.60;21.43;;;;;;;8.45;100.00;95439.53;5022977;28;20219;-65
2022/03/17 12:23:49;;;;;;;26.33;21.77;;;;;;;8.49;100.00;95432.03;5043211;28;20285;-65
2022/03/17 12:26:35;;;;;;;25.50;20.83;;;;;;;8.65;100.00;95431.97;5017004;28;20791;-65
2022/03/17 12:29:28;;;;;;;28.17;18.50;;;;;;;8.60;100.00;95437.97;5014026;28;20214;-65
2022/03/17 12:32:17;;;;;;;27.53;21.30;;;;;;;8.55;100.00;95441.94;5043371;28;20225;-65
2022/03/17 12:35:05;;;;;;;27.13;22.43;;;;;;;8.70;100.00;95441.56;5045134;28;20210;-65
2022/03/17 12:37:59;;;;;;;25.07;19.80;;;;;;;8.83;100.00;95448.56;5024231;28;20190;-65
2022/03/17 12:40:47;;;;;;;23.13;18.67;;;;;;;8.81;100.00;95431.91;5040211;28;20589;-65
2022/03/17 12:43:34;;;;;;;24.83;18.47;;;;;;;8.95;100.00;95442.41;5041624;28;20195;-65
2022/03/17 12:46:22;;;;;;;29.17;19.43;;;;;;;9.07;100.00;95440.88;5028742;28;20199;-65
2022/03/17 12:49:08;;;;;;;24.90;18.80;;;;;;;9.05;100.00;95441.31;5041618;28;20810;-65
2022/03/17 12:52:10;;;;;;;25.17;18.90;;;;;;;9.02;100.00;95450.38;5030197;28;20270;-65
2022/03/17 12:55:02;;;;;;;30.83;19.40;;;;;;;9.01;100.00;95442.63;5026363;28;20222;-65
2022/03/17 12:57:49;;;;;;;27.53;19.30;;;;;;;9.02;100.00;95444.91;5031547;28;20206;-65
2022/03/17 13:00:41;;;;;;;27.90;19.60;;;;;;;9.13;100.00;95439.91;5046247;28;20213;-65
2022/03/17 13:03:27;;;;;;;24.23;18.27;;;;;;;9.10;100.00;95435.31;5046782;28;20250;-65
2022/03/17 13:09:30;;;;;;;24.70;18.83;;;;;;;8.93;100.00;95442.06;5045029;28;20214;-65
2022/03/17 13:15:26;;;;;;;31.40;20.97;;;;;;;9.01;100.00;95445.34;5048011;28;20225;-65